イスタンブル の空港の天気 - METARとTAF

アタテュルク国際空港(イスタンブル) ( LTBA / IST ) - トルコ イスタンブル
飛行場実況気象(Metar)
観測時間07/18 15:20 EET (07/18 12:20 UTC)
風向・風速南西 6m/s
視程10km以上
天気現象
少しの雲 雲底高度 790m
全天の8割程度の雲 雲底高度 910m
気温28℃
湿度62%
気圧1005hPa
METARLTBA 181220Z 23012KT 9999 FEW026CB BKN030 28/20 Q1005 NOSIG RMK RWY17L 23014KT RWY05 22010KT RWY23 23014KT
過去の天気等 Google飛行場航空写真 Wunderground天気予報

過去48時間のMETAR

飛行場予報(TAF)
発表時間: 7/18 13:40 EET (7/18 10:40 UTC)
予報対象時間: 18日15時 EET ~ 19日21時 EET
風向・風速南西 4m/s
視程10km以上
全天の4割程度の雲 雲底高度 1070m
18日15時 EET ~ 18日19時 EET に一時的に
天気現象弱いしゅう雨
少しの積乱雲 雲底高度 610m
全天の8割程度の雲 雲底高度 760m
19日7時 EET から 確率 30% で
風向・風速西北西 8m/s
視程4000m
天気現象弱い雷雨
少しの積乱雲 雲底高度 610m
全天の8割程度の雲 雲底高度 760m
TAF LTBA 181040Z 1812/1918 22007KT 9999 SCT035
TEMPO 1812/1816 -SHRA FEW020CB BKN025
PROB30 1904/1908 30015KT 4000 -TSRA FEW020CB BKN025